KDLN/DLN METAR and TAF weather

Enter ICAO airport designator
Station Type Date Time Source
KDLN METAR 2021/08/04 18:53 UTC NOAA

KDLN 041853Z AUTO 00000KT 8SM CLR 25/10 A3022 RMK AO2 SLP183 T02500100


Station Type Date Time Source
KDLN Decoded METAR 2021/08/04 18:53 UTC NOAA

DILLON AIRPORT, MT, United States (KDLN) 45-15N 112-33W 1591M
Aug 04, 2021 - 02:53 PM EDT / 2021.08.04 1853 UTC
Wind: Calm:0
Visibility: 8 mile(s):0
Sky conditions: clear
Temperature: 77.0 F (25.0 C)
Dew Point: 50.0 F (10.0 C)
Relative Humidity: 38%
Pressure (altimeter): 30.22 in. Hg (1023 hPa)
ob: KDLN 041853Z AUTO 00000KT 8SM CLR 25/10 A3022 RMK AO2 SLP183 T02500100
cycle: 19

Station Type Date Time Source
KDLN TAF UTC NOAA

Error!

Example: see airport list